Latest Weather Observations for Hartz Mountains

IDT60801

Issued at 4:21 am EST Wednesday 17 July 2019 (issued every 10 minutes, with the page automatically refreshed every 10 minutes)

About weather observations | Map of weather stations | Latest weather observations for TAS | Other Formats
Station Details ID: 094191 Name: HARTZ MOUNTAIN (KEOGHS PIMPLE) Lat: -43.20 Lon: 146.77 Height: 831.0 m
Data from the previous 72 hours. | See also: Recent months at Hartz Mountains
Date/Time
EST
Temp
°C
App
Temp
°C
Dew
Point
°C
Rel
Hum
%
Delta-T
°C
Wind Press
QNH
hPa
Press
MSL
hPa
Rain since
9am
mm
Dir  Spd
km/h
Gust
km/h
Spd
kts
Gust
kts
17/04:00am 3.7 -4.3 3.6 99 0.0 W 35 56 19 30 - - 3.6
17/03:30am 3.6 -3.9 3.5 99 0.0 W 32 54 17 29 - - 3.6
17/03:10am 3.5 -3.6 3.4 99 0.0 W 30 50 16 27 - - 3.6
17/03:00am 3.5 -4.0 3.4 99 0.0 W 32 46 17 25 - - 3.6
17/02:30am 3.9 -4.1 3.8 99 0.0 W 35 54 19 29 - - 3.6
17/02:09am 3.9 -4.5 3.8 99 0.0 W 37 69 20 37 - - 3.4
17/02:00am 4.0 -3.0 3.9 99 0.0 W 30 50 16 27 - - 3.4
17/01:30am 4.2 -4.1 4.1 99 0.0 W 37 57 20 31 - - 3.4
17/01:05am 4.6 -1.9 4.5 99 0.0 W 28 48 15 26 - - 3.2
17/01:00am 4.6 -2.0 4.3 98 0.1 WNW 28 44 15 24 - - 3.2
17/12:30am 4.7 -2.6 4.4 98 0.1 W 32 59 17 32 - - 3.0
17/12:02am 4.9 -2.0 4.6 98 0.1 WSW 30 48 16 26 - - 2.8
17/12:00am 4.9 -2.4 4.6 98 0.1 WSW 32 48 17 26 - - 2.8
 
Date/Time
EST
Temp
°C
App
Temp
°C
Dew
Point
°C
Rel
Hum
%
Delta-T
°C
Wind Press
QNH
hPa
Press
MSL
hPa
Rain since
9am
mm
Dir  Spd
km/h
Gust
km/h
Spd
kts
Gust
kts
16/11:30pm 4.9 -2.4 4.6 98 0.1 W 32 52 17 28 - - 2.6
16/11:16pm 4.9 -1.6 4.6 98 0.1 W 28 65 15 35 - - 2.6
16/11:00pm 4.9 -0.9 4.6 98 0.1 WSW 24 37 13 20 - - 2.4
16/10:30pm 5.0 1.0 4.7 98 0.1 NNW 15 32 8 17 - - 2.0
16/10:00pm 4.9 1.2 4.6 98 0.1 WSW 13 26 7 14 - - 1.4
16/09:30pm 4.8 -1.0 4.5 98 0.1 WSW 24 44 13 24 - - 1.0
16/09:00pm 4.8 -1.7 4.5 98 0.1 WSW 28 50 15 27 - - 0.6
16/08:43pm 4.6 -2.0 4.3 98 0.1 W 28 46 15 25 - - 0.4
16/08:30pm 4.6 -1.6 4.3 98 0.1 WSW 26 37 14 20 - - 0.4
16/08:00pm 4.4 -2.6 4.1 98 0.1 WSW 30 52 16 28 - - 0.2
16/07:30pm 4.3 -3.1 4.0 98 0.1 WSW 32 52 17 28 - - 0.2
16/07:29pm 4.3 -3.1 4.0 98 0.1 WSW 32 52 17 28 - - 0.2
16/07:00pm 4.2 -3.8 3.9 98 0.1 WSW 35 52 19 28 - - 0.0
16/06:30pm 4.1 -5.4 3.7 97 0.2 WSW 43 54 23 29 - - 0.0
16/06:00pm 3.9 -5.7 3.5 97 0.2 WSW 43 56 23 30 - - 0.0
16/05:38pm 4.0 -6.1 3.6 97 0.2 WSW 46 65 25 35 - - 0.0
16/05:30pm 3.9 -7.0 3.5 97 0.2 WSW 50 65 27 35 - - 0.0
16/05:00pm 3.9 -7.4 3.3 96 0.3 WSW 52 72 28 39 - - 0.0
16/04:30pm 3.9 -7.8 3.5 97 0.2 WSW 54 74 29 40 - - 0.0
16/04:29pm 3.9 -7.8 3.5 97 0.2 WSW 54 74 29 40 - - 0.0
16/04:00pm 4.0 -7.7 3.4 96 0.3 WSW 54 69 29 37 - - 0.0
16/03:32pm 4.2 -6.7 3.6 96 0.3 WSW 50 70 27 38 - - 0.0
16/03:30pm 4.2 -6.3 3.6 96 0.3 WSW 48 63 26 34 - - 0.0
16/03:01pm 4.2 -7.1 3.6 96 0.3 WSW 52 72 28 39 - - 0.0
16/03:00pm 4.2 -7.1 3.6 96 0.3 WSW 52 67 28 36 - - 0.0
16/02:30pm 4.3 -7.4 3.6 95 0.3 WSW 54 72 29 39 - - 0.0
16/02:00pm 4.3 -6.2 3.9 97 0.2 WSW 48 74 26 40 - - 0.0
16/01:30pm 4.4 -6.8 4.0 97 0.2 WSW 52 74 28 40 - - 0.0
16/01:00pm 4.4 -7.6 4.0 97 0.2 WSW 56 78 30 42 - - 0.0
16/12:30pm 4.3 -7.8 4.0 98 0.1 WSW 57 78 31 42 - - 0.0
16/12:10pm 4.3 -6.9 4.0 98 0.1 WSW 52 72 28 39 - - 0.0
16/12:00pm 4.3 -6.9 3.9 97 0.2 SW 52 67 28 36 - - 0.0
16/11:30am 4.4 -7.7 4.1 98 0.1 WSW 57 78 31 42 - - 0.0
16/11:08am 4.4 -7.5 4.1 98 0.1 WSW 56 74 30 40 - - 0.0
16/11:00am 4.4 -8.1 4.1 98 0.1 WSW 59 74 32 40 - - 0.0
16/10:30am 4.4 -7.5 4.3 99 0.0 WSW 56 74 30 40 - - 0.0
16/10:04am 4.4 -7.7 4.3 99 0.0 WSW 57 80 31 43 - - 0.0
16/10:00am 4.6 -7.4 4.5 99 0.0 WSW 57 72 31 39 - - 0.0
16/09:30am 4.3 -7.8 4.2 99 0.0 WSW 57 76 31 41 - - 0.0
16/09:03am 4.1 -8.4 4.0 99 0.0 WSW 59 78 32 42 - - 0.0
16/09:00am 4.1 -8.8 4.0 99 0.0 WSW 61 76 33 41 - - 45.0
16/08:30am 3.9 -8.7 3.8 99 0.0 WSW 59 80 32 43 - - 45.0
16/08:05am 3.8 -8.2 3.7 99 0.0 WSW 56 74 30 40 - - 45.0
16/08:00am 3.8 -8.2 3.7 99 0.0 WSW 56 69 30 37 - - 45.0
16/07:31am 3.8 -8.2 3.7 99 0.0 WSW 56 74 30 40 - - 45.0
16/07:30am 3.8 -8.4 3.7 99 0.0 WSW 57 74 31 40 - - 45.0
16/07:16am 3.9 -8.1 3.8 99 0.0 WSW 56 78 30 42 - - 45.0
16/07:00am 3.9 -8.3 3.8 99 0.0 WSW 57 72 31 39 - - 44.8
16/06:30am 3.9 -7.7 3.8 99 0.0 WSW 54 72 29 39 - - 44.8
16/06:00am 4.0 -8.5 3.9 99 0.0 WSW 59 80 32 43 - - 44.8
16/05:30am 3.8 -8.2 3.7 99 0.0 WSW 56 74 30 40 - - 44.8
16/05:01am 3.9 -6.2 3.8 99 0.0 WSW 46 65 25 35 - - 44.8
16/05:00am 4.0 -6.5 3.9 99 0.0 WSW 48 65 26 35 - - 44.8
16/04:45am 4.3 -6.5 4.2 99 0.0 WSW 50 69 27 37 - - 44.8
16/04:30am 4.2 -7.4 4.1 99 0.0 WSW 54 69 29 37 - - 44.8
16/04:18am 4.4 -6.7 4.3 99 0.0 WSW 52 70 28 38 - - 44.8
16/04:00am 4.3 -6.5 4.2 99 0.0 WSW 50 63 27 34 - - 44.8
16/03:36am 4.3 -6.5 4.2 99 0.0 WSW 50 69 27 37 - - 44.4
16/03:30am 4.4 -6.7 4.3 99 0.0 WSW 52 67 28 36 - - 44.4
16/03:04am 4.4 -6.4 4.3 99 0.0 WSW 50 69 27 37 - - 44.2
16/03:00am 4.3 -6.9 4.2 99 0.0 WSW 52 69 28 37 - - 44.2
16/02:30am 4.5 -4.9 4.4 99 0.0 WSW 43 63 23 34 - - 43.8
16/02:00am 4.5 -3.4 4.4 99 0.0 WSW 35 59 19 32 - - 43.4
16/01:30am 4.6 -4.0 4.5 99 0.0 WSW 39 72 21 39 - - 43.0
16/01:01am 4.6 -4.4 4.5 99 0.0 WSW 41 63 22 34 - - 42.4
16/01:00am 4.6 -4.0 4.5 99 0.0 WSW 39 63 21 34 - - 42.4
16/12:31am 4.4 -2.2 4.3 99 0.0 WSW 28 52 15 28 - - 41.8
16/12:30am 4.5 -1.7 4.4 99 0.0 WSW 26 52 14 28 - - 41.8
16/12:05am 4.5 -2.1 4.4 99 0.0 W 28 50 15 27 - - 40.6
16/12:00am 4.5 -1.3 4.4 99 0.0 W 24 43 13 23 - - 40.6
 
Date/Time
EST
Temp
°C
App
Temp
°C
Dew
Point
°C
Rel
Hum
%
Delta-T
°C
Wind Press
QNH
hPa
Press
MSL
hPa
Rain since
9am
mm
Dir  Spd
km/h
Gust
km/h
Spd
kts
Gust
kts
15/11:30pm 4.3 -3.2 4.2 99 0.0 W 33 54 18 29 - - 40.0
15/11:00pm 4.5 -3.0 4.4 99 0.0 WSW 33 56 18 30 - - 39.4
15/10:30pm 4.3 -3.1 4.2 99 0.0 WSW 32 59 17 32 - - 38.4
15/10:00pm 4.4 -6.0 4.3 99 0.0 WSW 48 70 26 38 - - 38.2
15/09:30pm 4.2 -5.3 4.1 99 0.0 WSW 43 61 23 33 - - 38.0
15/09:00pm 4.3 -5.3 4.2 99 0.0 WSW 44 65 24 35 - - 37.6
15/08:30pm 4.2 -6.6 4.1 99 0.0 WSW 50 70 27 38 - - 37.2
15/08:00pm 4.4 -7.5 4.3 99 0.0 WSW 56 83 30 45 - - 37.2
15/07:30pm 4.3 -8.2 4.2 99 0.0 WSW 59 80 32 43 - - 37.0
15/07:00pm 4.4 -7.7 4.3 99 0.0 WSW 57 87 31 47 - - 36.6
15/06:30pm 4.4 -7.5 4.1 98 0.1 WSW 56 78 30 42 - - 36.4
15/06:00pm 4.6 -6.5 4.3 98 0.1 WSW 52 85 28 46 - - 35.8
15/05:41pm 4.4 -6.4 4.1 98 0.1 WSW 50 87 27 47 - - 35.4
15/05:30pm 4.2 -4.5 3.9 98 0.1 WSW 39 72 21 39 - - 35.0
15/05:00pm 4.1 -6.4 3.8 98 0.1 WSW 48 80 26 43 - - 34.2
15/04:30pm 3.9 -7.0 3.6 98 0.1 WSW 50 80 27 43 - - 33.2
15/04:20pm 3.9 -6.6 3.6 98 0.1 WSW 48 74 26 40 - - 33.0
15/04:13pm 3.7 -8.4 3.4 98 0.1 WSW 56 83 30 45 - - 33.0
15/04:00pm 3.9 -9.8 3.6 98 0.1 WSW 65 91 35 49 - - 32.8
15/03:30pm 3.5 -7.9 3.1 97 0.2 WSW 52 91 28 49 - - 32.0
15/03:00pm 3.9 -7.0 3.5 97 0.2 WSW 50 85 27 46 - - 31.4
15/02:50pm 4.2 -7.0 3.8 97 0.2 WSW 52 83 28 45 - - 31.0
15/02:30pm 4.3 -5.2 3.9 97 0.2 W 43 65 23 35 - - 30.6
15/02:00pm 4.6 -5.8 4.3 98 0.1 W 48 85 26 46 - - 29.6
15/01:30pm 4.8 -5.1 4.7 99 0.0 W 46 76 25 41 - - 28.6
15/01:17pm 4.4 -4.3 4.3 99 0.0 W 39 95 21 51 - - 28.2
15/01:15pm 4.5 -4.1 4.4 99 0.0 W 39 95 21 51 - - 28.0
15/01:00pm 4.2 -3.7 4.1 99 0.0 W 35 65 19 35 - - 27.6
15/12:30pm 3.5 -5.0 3.4 99 0.0 W 37 65 20 35 - - 26.4
15/12:00pm 3.1 -3.7 3.0 99 0.0 W 28 52 15 28 - - 25.0
15/11:46am 2.6 -4.3 2.5 99 0.0 W 28 63 15 34 - - 24.4
15/11:30am 2.4 -4.2 2.3 99 0.0 W 26 44 14 24 - - 23.6
15/11:00am 2.1 -6.2 2.0 99 0.0 W 35 59 19 32 - - 19.0
15/10:53am 2.2 -6.5 2.1 99 0.0 W 37 57 20 31 - - 2.0
15/10:49am 2.0 -6.7 1.9 99 0.0 W 37 56 20 30 - - 0.8
15/10:30am 1.9 -8.5 1.8 99 0.0 WSW 46 69 25 37 - - 0.2
15/10:10am 1.5 -10.5 1.4 99 0.0 WSW 54 72 29 39 - - 0.0
15/10:00am 1.5 -11.9 1.4 99 0.0 WSW 61 74 33 40 - - 0.0
15/09:30am 1.3 -12.1 1.2 99 0.0 WSW 61 87 33 47 - - 0.0
15/09:00am 1.1 -13.8 1.0 99 0.0 WSW 69 95 37 51 - - 0.0
15/08:30am 1.0 -13.6 0.9 99 0.0 WSW 67 87 36 47 - - 0.0
15/08:13am 0.9 -12.9 0.9 100 0.0 WSW 63 82 34 44 - - 0.0
15/08:00am 0.9 -12.9 0.9 100 0.0 WSW 63 80 34 43 - - 0.0
15/07:53am 1.0 -12.0 1.0 100 0.0 WSW 59 80 32 43 - - 0.0
15/07:50am 1.0 -11.7 1.0 100 0.0 WSW 57 80 31 43 - - 0.0
15/07:30am 0.8 -9.2 0.8 100 0.0 WSW 43 63 23 34 - - 0.0
15/07:20am 1.0 -10.3 1.0 100 0.0 WSW 50 69 27 37 - - 0.0
15/07:00am 0.8 -10.2 0.8 100 0.0 WSW 48 65 26 35 - - 0.0
15/06:31am 0.9 -9.1 0.9 100 0.0 WSW 43 61 23 33 - - 0.0
15/06:30am 0.9 -9.3 0.9 100 0.0 WSW 44 61 24 33 - - 0.0
15/06:00am 0.9 -10.1 0.9 100 0.0 WSW 48 63 26 34 - - 0.0
15/05:51am 1.0 -7.9 1.0 100 0.0 WSW 37 59 20 32 - - 0.0
15/05:30am 1.1 -8.9 1.1 100 0.0 WSW 43 54 23 29 - - 0.0
15/05:00am 1.0 -9.0 1.0 100 0.0 WSW 43 52 23 28 - - 0.0
15/04:30am 1.0 -9.0 1.0 100 0.0 WSW 43 54 23 29 - - 0.0
15/04:00am 1.3 -8.9 1.2 99 0.0 SW 44 61 24 33 - - 0.0
15/03:30am 1.1 -9.9 1.0 99 0.0 SW 48 69 26 37 - - 0.0
15/03:04am 0.9 -9.7 0.8 99 0.0 WSW 46 65 25 35 - - 0.0
15/03:00am 0.9 -10.1 0.8 99 0.0 WSW 48 65 26 35 - - 0.0
15/02:30am 0.9 -10.4 0.9 100 0.0 SW 50 76 27 41 - - 0.0
15/02:00am 0.5 -10.9 0.4 99 0.0 SW 50 69 27 37 - - 0.0
15/01:30am 0.7 -12.8 0.7 100 0.0 SW 61 80 33 43 - - 0.0
15/01:16am 0.4 -14.6 0.3 99 0.0 SW 69 87 37 47 - - 0.0
15/01:13am 0.5 -14.2 0.4 99 0.0 SW 67 87 36 47 - - 0.0
15/01:00am 0.4 -11.4 0.3 99 0.0 SW 52 87 28 47 - - 0.0
15/12:30am 0.1 -11.8 0.0 99 0.0 SW 52 70 28 38 - - 0.0
15/12:05am 0.0 -12.6 -0.1 99 0.0 SW 56 80 30 43 - - 0.0
15/12:00am 0.0 -12.3 -0.1 99 0.0 SW 54 69 29 37 - - 0.0
 
Date/Time
EST
Temp
°C
App
Temp
°C
Dew
Point
°C
Rel
Hum
%
Delta-T
°C
Wind Press
QNH
hPa
Press
MSL
hPa
Rain since
9am
mm
Dir  Spd
km/h
Gust
km/h
Spd
kts
Gust
kts
14/11:30pm 0.0 -12.8 -0.1 99 0.0 SW 57 83 31 45 - - 0.0
14/11:23pm 0.0 -11.1 -0.1 99 0.0 SW 48 83 26 45 - - 0.0
14/11:02pm -0.1 -10.3 -0.2 99 0.0 SW 43 63 23 34 - - 0.0
14/11:00pm -0.2 -10.0 -0.3 99 0.0 SW 41 57 22 31 - - 0.0
14/10:30pm -0.2 -10.6 -0.3 99 0.0 SW 44 70 24 38 - - 0.0
14/10:00pm -0.2 -11.0 -0.3 99 0.0 SW 46 70 25 38 - - 0.0
14/09:52pm -0.3 -11.5 -0.4 99 0.0 SW 48 70 26 38 - - 0.0
14/09:30pm -0.5 -10.9 -0.5 100 0.0 SW 44 61 24 33 - - 0.0
14/09:00pm -0.5 -10.9 -0.5 100 0.0 SW 44 56 24 30 - - 0.0
14/08:30pm -0.7 -11.2 -0.8 99 0.0 SW 44 83 24 45 - - 0.0
14/08:22pm -0.6 -11.8 -0.6 100 0.0 SW 48 83 26 45 - - 0.0
14/08:00pm -0.6 -11.0 -0.6 100 0.0 SW 44 65 24 35 - - 0.0
14/07:37pm -0.5 -9.2 -0.5 100 0.0 WSW 35 56 19 30 - - 0.0
14/07:30pm -0.6 -9.3 -0.6 100 0.0 WSW 35 50 19 27 - - 0.0
14/07:10pm -0.4 -11.6 -0.4 100 0.0 SW 48 76 26 41 - - 0.0
14/07:04pm -0.4 -11.2 -0.4 100 0.0 SW 46 76 25 41 - - 0.0
14/07:00pm -0.6 -9.7 -0.6 100 0.0 SW 37 61 20 33 - - 0.0
14/06:30pm -0.5 -12.1 -0.5 100 0.0 SW 50 72 27 39 - - 0.0
14/06:25pm -0.6 -11.0 -0.6 100 0.0 SW 44 72 24 39 - - 0.0
14/06:15pm -0.7 -9.4 -0.7 100 0.0 WSW 35 54 19 29 - - 0.0
14/06:03pm -0.7 -11.5 -0.7 100 0.0 SW 46 76 25 41 - - 0.0
14/06:00pm -0.7 -11.5 -0.7 100 0.0 SW 46 76 25 41 - - 0.0
14/05:58pm -0.7 -11.0 -0.7 100 0.0 WSW 43 76 23 41 - - 0.0
14/05:30pm -0.9 -10.8 -0.9 100 0.0 WSW 41 59 22 32 - - 0.0
14/05:00pm -0.9 -10.4 -0.9 100 0.0 SW 39 61 21 33 - - 0.0
14/04:30pm -0.7 -11.0 -0.7 100 0.0 WSW 43 67 23 36 - - 0.0
14/04:28pm -0.7 -10.6 -0.7 100 0.0 WSW 41 67 22 36 - - 0.0
14/04:05pm -0.8 -8.2 -0.8 100 0.0 WSW 28 46 15 25 - - 0.0
14/04:00pm -0.8 -7.5 -0.8 100 0.0 WSW 24 43 13 23 - - 0.0
14/03:32pm -0.7 -9.4 -0.7 100 0.0 WSW 35 61 19 33 - - 0.0
14/03:30pm -0.7 -9.4 -0.7 100 0.0 WSW 35 50 19 27 - - 0.0
14/03:04pm -0.6 -8.0 -0.6 100 0.0 WSW 28 46 15 25 - - 0.0
14/03:00pm -0.6 -7.6 -0.6 100 0.0 W 26 41 14 22 - - 0.0
14/02:32pm -0.6 -8.0 -0.6 100 0.0 WSW 28 48 15 26 - - 0.0
14/02:30pm -0.6 -7.6 -0.6 100 0.0 W 26 39 14 21 - - 0.0
14/02:00pm -0.7 -9.1 -0.7 100 0.0 WSW 33 52 18 28 - - 0.0
14/01:30pm -0.5 -7.9 -0.6 99 0.0 W 28 56 15 30 - - 0.0
14/01:00pm -0.4 -8.5 -0.5 99 0.0 W 32 52 17 28 - - 0.0
14/12:32pm -0.4 -8.5 -0.5 99 0.0 WSW 32 50 17 27 - - 0.0
14/12:30pm -0.4 -9.1 -0.5 99 0.0 WSW 35 50 19 27 - - 0.0
14/12:11pm -0.3 -10.1 -0.4 99 0.0 WSW 41 59 22 32 - - 0.0
14/12:00pm -0.2 -10.6 -0.5 98 0.1 WSW 44 59 24 32 - - 0.0
14/11:30am 0.4 -8.6 0.0 97 0.2 W 37 65 20 35 - - 0.0
14/11:00am 0.4 -8.2 0.1 98 0.1 W 35 74 19 40 - - 0.0
14/10:58am 0.3 -8.0 0.0 98 0.1 W 33 57 18 31 - - 0.0
14/10:47am 0.1 -8.6 -0.3 97 0.2 W 35 59 19 32 - - 0.0
14/10:30am 0.7 -8.3 0.0 95 0.3 WSW 37 56 20 30 - - 0.0
14/10:29am 0.7 -8.3 0.0 95 0.3 WSW 37 56 20 30 - - 0.0
14/10:00am 0.3 -9.4 0.2 99 0.0 WSW 41 54 22 29 - - 0.0
14/09:30am 0.2 -11.7 -0.2 97 0.2 WSW 52 70 28 38 - - 0.0
14/09:22am 0.5 -10.6 0.1 97 0.2 WSW 48 70 26 38 - - 0.0
14/09:19am 0.6 -10.8 0.3 98 0.1 WSW 50 72 27 39 - - 0.0
14/09:10am 0.7 -10.7 0.6 99 0.0 WSW 50 80 27 43 - - 0.0
14/09:04am 0.4 -9.7 0.3 99 0.0 WSW 43 63 23 34 - - 0.0
14/09:00am 0.3 -9.1 0.2 99 0.0 WSW 39 56 21 30 - - 0.0
14/08:49am 0.3 -7.9 0.2 99 0.0 W 33 59 18 32 - - 0.0
14/08:46am 0.2 -8.8 0.1 99 0.0 W 37 59 20 32 - - 0.0
14/08:32am 0.4 -9.3 0.3 99 0.0 WSW 41 59 22 32 - - 0.0
14/08:30am 0.4 -8.9 0.3 99 0.0 WSW 39 54 21 29 - - 0.0
14/08:01am 0.7 -7.8 0.6 99 0.0 WSW 35 74 19 40 - - 0.0
14/08:00am 0.8 -6.8 0.7 99 0.0 WSW 30 56 16 30 - - 0.0
14/07:30am 0.9 -7.2 0.8 99 0.0 WSW 33 50 18 27 - - 0.0
14/07:26am 1.0 -7.9 0.9 99 0.0 WSW 37 57 20 31 - - 0.0
14/07:24am 0.9 -8.8 0.8 99 0.0 WSW 41 61 22 33 - - 0.0
14/07:00am 0.9 -8.8 0.8 99 0.0 WSW 41 65 22 35 - - 0.0
14/06:59am 0.9 -8.8 0.8 99 0.0 WSW 41 65 22 35 - - 0.0
14/06:55am 1.0 -8.3 0.9 99 0.0 WSW 39 65 21 35 - - 0.0
14/06:30am 1.0 -9.6 1.0 100 0.0 W 46 74 25 40 - - 0.0
14/06:00am 1.6 -7.5 1.6 100 0.0 WNW 39 61 21 33 - - 0.0
14/05:38am 1.6 -6.8 1.6 100 0.0 WNW 35 82 19 44 - - 0.0
14/05:30am 1.5 -6.9 1.5 100 0.0 W 35 57 19 31 - - 0.0
14/05:00am 1.3 -8.7 1.3 100 0.0 WNW 43 69 23 37 - - 0.0
14/04:30am 1.0 -10.3 1.0 100 0.0 WNW 50 76 27 41 - - 0.0

Other formats

Comma delimited format used in spreadsheet applications
http://www.bom.gov.au/fwo/IDT60801/IDT60801.94977.axf

JavaScript Object Notation format (JSON) in row-major order
http://www.bom.gov.au/fwo/IDT60801/IDT60801.94977.json

Data quality

Most of these data are generated automatically and are frequently updated. Quality checks on data are not normally performed. It is possible for incorrect values to appear. Refer to information at About Latest Weather Observations and please check the disclaimer before using these data.